Selma, Virginia
Current Conditions -  °F | °C
As of 1:55 AM on Sunday 26 Oct 2014 (Local Time) from KHSP Reporting Station
Overcast Overcast  
Wind Chill: 55°   Ceiling: 2300
Heat Index: 55°   Visibility: 10mi
Dew Point: 47°   Wind: 21mph
Humidity: 73%   Direction: 290°WNW
Pressure: 29.8"   Gusts: 32mph
Location:  37.8°N, 79.84°W
Report Text: KHSP 260555Z AUTO 29018G28KT 10SM BKN023 BKN031 OVC043 13/08 A2980 RMK AO2 T01290081 10130 20105
Loading
Personal Weather Stations






























Interactive Weather Map
Tropical Storm Tracking
New forecast layout! Learn more

10-Day Weather Forecast

Advertisements
Track Severe Weather on mobile